Time;durP1;ratioP1;P1;durP2;ratioP2;P2;SDS_P1;SDS_P2;PMS_P1;PMS_P2;Temp;Humidity;BMP_temperature;BMP_pressure;BME280_temperature;BME280_humidity;BME280_pressure;Samples;Min_cycle;Max_cycle;Signal;HPM_P1;HPM_P2
2021/11/29 00:00:24;;;;;;;24.73;22.63;;;2.10;99.90;;;;;;6213440;23;20479;-76
2021/11/29 00:02:58;;;;;;;24.30;22.13;;;2.10;99.90;;;;;;6215007;23;20858;-77
2021/11/29 00:05:26;;;;;;;23.70;21.70;;;2.10;99.90;;;;;;6214780;23;20409;-76
2021/11/29 00:07:53;;;;;;;24.37;22.27;;;2.10;99.90;;;;;;6215204;23;20438;-77
2021/11/29 00:10:21;;;;;;;23.90;21.60;;;2.10;99.90;;;;;;6215361;23;20434;-77
2021/11/29 00:12:48;;;;;;;24.63;22.50;;;2.10;99.90;;;;;;6213536;23;20428;-77
2021/11/29 00:15:15;;;;;;;24.77;22.57;;;2.00;99.90;;;;;;6213196;23;20423;-77
2021/11/29 00:17:42;;;;;;;24.57;22.40;;;2.00;99.90;;;;;;6213243;23;20413;-77
2021/11/29 00:20:11;;;;;;;22.50;20.57;;;2.00;99.90;;;;;;6215103;23;20786;-77
2021/11/29 00:22:38;;;;;;;25.50;23.40;;;2.00;99.90;;;;;;6214741;23;20457;-77
2021/11/29 00:25:06;;;;;;;23.53;21.37;;;2.00;99.90;;;;;;6213485;23;20462;-76
2021/11/29 00:27:36;;;;;;;23.23;21.30;;;2.00;99.90;;;;;;6214645;23;20883;-76
2021/11/29 00:30:04;;;;;;;23.03;21.13;;;2.00;99.90;;;;;;6214905;23;20878;-76
2021/11/29 00:32:31;;;;;;;22.80;20.90;;;2.00;99.90;;;;;;6214972;23;20479;-76
2021/11/29 00:34:57;;;;;;;22.87;21.07;;;2.00;99.90;;;;;;6213018;23;20423;-76
2021/11/29 00:37:24;;;;;;;22.97;21.10;;;2.00;99.90;;;;;;6212840;23;20418;-76
2021/11/29 00:39:51;;;;;;;23.43;21.40;;;2.00;99.90;;;;;;6213117;23;20425;-77
2021/11/29 00:42:18;;;;;;;24.60;22.30;;;2.00;99.90;;;;;;6214491;23;20437;-77
2021/11/29 00:44:47;;;;;;;22.07;20.17;;;2.00;99.90;;;;;;6214843;23;20437;-77
2021/11/29 00:47:13;;;;;;;23.43;21.40;;;2.00;99.90;;;;;;6212671;23;20809;-76
2021/11/29 00:49:41;;;;;;;23.27;21.27;;;1.90;99.90;;;;;;6214778;23;20391;-76
2021/11/29 00:52:07;;;;;;;22.47;20.67;;;1.90;99.90;;;;;;6214004;23;20461;-75
2021/11/29 00:54:34;;;;;;;21.40;19.70;;;2.00;99.90;;;;;;6224490;23;20407;-77
2021/11/29 00:57:01;;;;;;;21.77;20.07;;;2.00;99.90;;;;;;6247318;23;20441;-77
2021/11/29 00:59:28;;;;;;;21.37;19.77;;;2.00;99.90;;;;;;6245350;23;20771;-76
2021/11/29 01:01:56;;;;;;;21.00;19.23;;;2.00;99.90;;;;;;6247476;22;20385;-78
2021/11/29 01:04:23;;;;;;;19.83;18.33;;;2.00;99.90;;;;;;6245227;22;20474;-76
2021/11/29 01:06:50;;;;;;;20.93;19.13;;;2.00;99.90;;;;;;6219982;23;20467;-77
2021/11/29 01:09:17;;;;;;;21.20;19.40;;;2.10;99.90;;;;;;6245136;22;20472;-77
2021/11/29 01:11:44;;;;;;;21.47;19.67;;;2.00;99.90;;;;;;6246803;22;20445;-77
2021/11/29 01:14:11;;;;;;;23.47;20.80;;;2.10;99.90;;;;;;6245030;22;20404;-77
2021/11/29 01:16:37;;;;;;;21.13;19.43;;;2.00;99.90;;;;;;6246289;23;20381;-77
2021/11/29 01:19:06;;;;;;;20.77;19.13;;;2.10;99.90;;;;;;6246897;23;20397;-78
2021/11/29 01:21:32;;;;;;;21.20;19.50;;;2.10;99.90;;;;;;6245408;22;20416;-76
2021/11/29 01:23:59;;;;;;;21.60;19.80;;;2.10;99.90;;;;;;6244649;23;20484;-77
2021/11/29 01:26:26;;;;;;;20.70;19.10;;;2.00;99.90;;;;;;6246440;23;20415;-77
2021/11/29 01:28:53;;;;;;;20.30;18.60;;;2.10;99.90;;;;;;6247154;23;20386;-77
2021/11/29 01:31:20;;;;;;;20.60;19.00;;;2.10;99.90;;;;;;6245203;23;20790;-77
2021/11/29 01:33:46;;;;;;;21.20;19.47;;;2.10;99.90;;;;;;6246835;22;20465;-76
2021/11/29 01:36:14;;;;;;;20.63;18.97;;;2.10;99.90;;;;;;6246740;23;20428;-77
2021/11/29 01:38:41;;;;;;;21.23;19.53;;;2.10;99.90;;;;;;6244477;22;20409;-77
2021/11/29 01:41:08;;;;;;;21.17;19.43;;;2.10;99.90;;;;;;6247092;23;20394;-78
2021/11/29 01:43:35;;;;;;;19.43;17.93;;;2.10;99.90;;;;;;6246526;22;20437;-76
2021/11/29 01:46:02;;;;;;;19.53;18.03;;;2.10;99.90;;;;;;6244896;23;20897;-77
2021/11/29 01:48:29;;;;;;;20.17;18.57;;;2.10;99.90;;;;;;6244739;22;20401;-77
2021/11/29 01:50:58;;;;;;;20.43;18.93;;;2.10;99.90;;;;;;6246466;23;20430;-77
2021/11/29 01:53:27;;;;;;;21.00;19.40;;;2.00;99.90;;;;;;6220007;23;20508;-77
2021/11/29 01:55:58;;;;;;;20.17;18.57;;;2.00;99.90;;;;;;6246552;23;20400;-77
2021/11/29 01:58:25;;;;;;;20.80;18.90;;;2.10;99.90;;;;;;6244739;23;20492;-76
2021/11/29 02:00:55;;;;;;;19.30;17.80;;;2.00;99.90;;;;;;6219342;23;20432;-76
2021/11/29 02:03:23;;;;;;;18.93;17.43;;;2.00;99.90;;;;;;6219637;23;20428;-76
2021/11/29 02:05:51;;;;;;;20.43;18.80;;;2.00;99.90;;;;;;6248077;23;20394;-76
2021/11/29 02:08:18;;;;;;;19.27;17.77;;;2.00;99.90;;;;;;6221426;23;20509;-76
2021/11/29 02:10:47;;;;;;;19.23;17.73;;;2.00;99.90;;;;;;6221672;23;20888;-77
2021/11/29 02:13:14;;;;;;;20.40;18.80;;;2.00;99.90;;;;;;6248357;22;20405;-77
2021/11/29 02:15:41;;;;;;;20.70;19.00;;;2.00;99.90;;;;;;6221401;23;20505;-77
2021/11/29 02:18:08;;;;;;;21.83;19.93;;;1.90;99.90;;;;;;6248457;23;20386;-76
2021/11/29 02:20:37;;;;;;;20.07;18.47;;;1.90;99.90;;;;;;6221825;23;20479;-76
2021/11/29 02:23:06;;;;;;;20.07;18.57;;;1.90;99.90;;;;;;6246784;22;20435;-78
2021/11/29 02:25:33;;;;;;;20.23;18.63;;;1.90;99.90;;;;;;6247167;23;20440;-76
2021/11/29 02:28:00;;;;;;;21.40;19.60;;;1.90;99.90;;;;;;6248377;23;20395;-76
2021/11/29 02:30:27;;;;;;;22.23;20.33;;;1.90;99.90;;;;;;6248650;23;20408;-77
2021/11/29 02:32:55;;;;;;;21.37;19.43;;;1.90;99.90;;;;;;6248455;22;20437;-77
2021/11/29 02:35:22;;;;;;;19.87;18.37;;;1.80;99.90;;;;;;6221658;23;20408;-77
2021/11/29 02:37:52;;;;;;;20.20;18.60;;;1.80;99.90;;;;;;6246620;22;20498;-77
2021/11/29 02:40:19;;;;;;;21.87;20.07;;;1.90;99.90;;;;;;6248940;23;20417;-77
2021/11/29 02:42:46;;;;;;;21.63;19.83;;;1.90;99.90;;;;;;6246775;22;20458;-77
2021/11/29 02:45:13;;;;;;;21.43;19.63;;;1.90;99.90;;;;;;6221566;23;20501;-79
2021/11/29 02:47:40;;;;;;;21.50;19.70;;;1.90;99.90;;;;;;6248288;23;20387;-77
2021/11/29 02:50:07;;;;;;;21.47;19.67;;;1.90;99.90;;;;;;6221517;23;20414;-77
2021/11/29 02:52:34;;;;;;;21.70;19.93;;;1.90;99.90;;;;;;6221192;23;20841;-77
2021/11/29 02:55:03;;;;;;;20.90;19.20;;;1.90;99.90;;;;;;6246420;23;20473;-76
2021/11/29 02:57:30;;;;;;;22.50;20.50;;;1.90;99.90;;;;;;6246032;23;20409;-78
2021/11/29 02:59:57;;;;;;;20.77;19.03;;;1.90;99.90;;;;;;6221197;23;20412;-78
2021/11/29 03:02:24;;;;;;;22.10;20.20;;;1.90;99.90;;;;;;6247777;22;20411;-77
2021/11/29 03:04:51;;;;;;;21.87;20.07;;;1.90;99.90;;;;;;6246439;22;20417;-77
2021/11/29 03:07:18;;;;;;;21.83;19.83;;;1.80;99.90;;;;;;6245177;22;20785;-77
2021/11/29 03:09:46;;;;;;;22.50;20.57;;;1.80;99.90;;;;;;6248192;23;20392;-77
2021/11/29 03:12:15;;;;;;;22.47;20.47;;;1.80;99.90;;;;;;6220682;23;20951;-76
2021/11/29 03:14:42;;;;;;;22.23;20.23;;;1.80;99.90;;;;;;6220198;23;20436;-76
2021/11/29 03:17:09;;;;;;;23.13;21.20;;;1.80;99.90;;;;;;6247684;23;20424;-76
2021/11/29 03:19:38;;;;;;;22.93;20.83;;;1.80;99.90;;;;;;6247970;23;20444;-76
2021/11/29 03:22:07;;;;;;;24.50;22.20;;;1.80;99.90;;;;;;6248704;22;20407;-77
2021/11/29 03:24:35;;;;;;;23.57;21.40;;;1.90;99.90;;;;;;6248072;23;20934;-77
2021/11/29 03:27:03;;;;;;;24.77;22.47;;;1.90;99.90;;;;;;6247566;23;20382;-77
2021/11/29 03:29:31;;;;;;;22.57;20.57;;;1.90;99.90;;;;;;6221187;23;20416;-77
2021/11/29 03:32:00;;;;;;;22.03;20.23;;;1.90;99.90;;;;;;6247675;22;20430;-77
2021/11/29 03:34:29;;;;;;;22.17;20.30;;;1.90;99.90;;;;;;6246100;23;20961;-77
2021/11/29 03:36:58;;;;;;;22.00;20.20;;;1.90;99.90;;;;;;6247718;23;20389;-77
2021/11/29 03:39:28;;;;;;;23.63;21.33;;;1.90;99.90;;;;;;6246106;23;20416;-78
2021/11/29 03:42:04;;;;;;;23.80;21.70;;;2.00;99.90;;;;;;6247649;22;20992;-77
2021/11/29 03:44:33;;;;;;;23.10;21.03;;;1.90;99.90;;;;;;6252865;23;20500;-78
2021/11/29 03:47:00;;;;;;;23.87;21.77;;;2.00;99.90;;;;;;6245501;23;20391;-79
2021/11/29 03:49:27;;;;;;;23.87;21.77;;;2.00;99.90;;;;;;6215695;23;20449;-78
2021/11/29 03:51:55;;;;;;;24.13;22.00;;;2.00;99.90;;;;;;6246745;22;20482;-77
2021/11/29 03:54:21;;;;;;;22.90;20.90;;;2.00;99.90;;;;;;6222139;23;20974;-77
2021/11/29 03:56:50;;;;;;;23.87;21.80;;;2.00;99.90;;;;;;6246457;23;20896;-77
2021/11/29 03:59:17;;;;;;;24.17;22.13;;;2.00;99.90;;;;;;6247283;23;20872;-77
2021/11/29 04:01:46;;;;;;;24.00;21.97;;;2.00;99.90;;;;;;6220512;22;20407;-78
2021/11/29 04:04:13;;;;;;;23.87;21.83;;;2.00;99.90;;;;;;6248419;23;20417;-79
2021/11/29 04:06:40;;;;;;;23.80;21.67;;;2.00;99.90;;;;;;6247388;23;20401;-77
2021/11/29 04:09:07;;;;;;;23.80;21.77;;;2.00;99.90;;;;;;6248054;23;20393;-78
2021/11/29 04:11:34;;;;;;;26.23;23.73;;;2.00;99.90;;;;;;6246592;22;20787;-79
2021/11/29 04:14:01;;;;;;;25.67;23.10;;;2.00;99.90;;;;;;6220592;23;20430;-77
2021/11/29 04:16:28;;;;;;;25.57;23.03;;;2.00;99.90;;;;;;6219806;23;20425;-77
2021/11/29 04:18:57;;;;;;;24.97;22.67;;;1.90;99.90;;;;;;6241581;23;20889;-78
2021/11/29 04:21:24;;;;;;;26.13;23.73;;;1.80;99.90;;;;;;6246212;23;20489;-77
2021/11/29 04:23:51;;;;;;;26.63;24.13;;;1.70;99.90;;;;;;6217474;23;20428;-78
2021/11/29 04:26:18;;;;;;;28.17;25.47;;;1.70;99.90;;;;;;6246909;23;20770;-78
2021/11/29 04:28:46;;;;;;;26.73;24.13;;;1.70;99.90;;;;;;6220940;23;20494;-77
2021/11/29 04:31:13;;;;;;;25.77;23.27;;;1.70;99.90;;;;;;6246949;23;20474;-78
2021/11/29 04:33:40;;;;;;;26.50;23.90;;;1.80;99.90;;;;;;6222785;23;20425;-77
2021/11/29 04:36:08;;;;;;;25.97;23.30;;;1.70;99.90;;;;;;6221799;23;20421;-78
2021/11/29 04:38:35;;;;;;;25.63;23.23;;;1.80;99.90;;;;;;6222917;23;20438;-77
2021/11/29 04:41:02;;;;;;;25.97;23.63;;;1.80;99.90;;;;;;6249851;23;20392;-78
2021/11/29 04:43:29;;;;;;;24.53;22.33;;;1.80;99.90;;;;;;6249413;22;20461;-78
2021/11/29 04:45:56;;;;;;;28.13;25.43;;;1.80;99.90;;;;;;6249838;23;20392;-78
2021/11/29 04:48:23;;;;;;;25.13;22.83;;;1.70;99.90;;;;;;6248613;23;20454;-77
2021/11/29 04:50:51;;;;;;;25.63;23.23;;;1.70;99.90;;;;;;6222637;23;20414;-77
2021/11/29 04:53:19;;;;;;;26.67;24.13;;;1.70;99.90;;;;;;6247846;23;20497;-77
2021/11/29 04:55:46;;;;;;;28.30;25.70;;;1.70;99.90;;;;;;6248928;23;20924;-77
2021/11/29 04:58:13;;;;;;;25.83;23.27;;;1.70;99.90;;;;;;6248652;23;20393;-78
2021/11/29 05:00:40;;;;;;;26.70;24.17;;;1.70;99.90;;;;;;6250143;23;20387;-77
2021/11/29 05:03:06;;;;;;;28.73;25.83;;;1.70;99.90;;;;;;6246707;22;20446;-77
2021/11/29 05:05:33;;;;;;;29.70;26.77;;;1.70;99.90;;;;;;6248226;23;20387;-77
2021/11/29 05:08:00;;;;;;;28.43;25.60;;;1.70;99.90;;;;;;6246941;23;20470;-78
2021/11/29 05:10:28;;;;;;;28.10;25.40;;;1.70;99.90;;;;;;6245814;23;20422;-80
2021/11/29 05:12:55;;;;;;;28.47;25.67;;;1.70;99.90;;;;;;6246260;22;20495;-78
2021/11/29 05:15:22;;;;;;;27.47;24.67;;;1.70;99.90;;;;;;6244570;23;20894;-77
2021/11/29 05:17:48;;;;;;;27.03;24.27;;;1.70;99.90;;;;;;6245629;22;20900;-77
2021/11/29 05:20:15;;;;;;;26.93;24.23;;;1.70;99.90;;;;;;6247224;23;20701;-78
2021/11/29 05:22:42;;;;;;;27.43;24.63;;;1.70;99.90;;;;;;6244548;23;20493;-77
2021/11/29 05:25:09;;;;;;;28.47;25.63;;;1.70;99.90;;;;;;6246359;23;20884;-78
2021/11/29 05:27:38;;;;;;;28.70;25.80;;;1.70;99.90;;;;;;6217911;23;20410;-77
2021/11/29 05:30:07;;;;;;;27.90;24.97;;;1.70;99.90;;;;;;6248271;23;20426;-76
2021/11/29 05:32:34;;;;;;;28.93;26.00;;;1.80;99.90;;;;;;6248824;22;20485;-78
2021/11/29 05:35:01;;;;;;;27.77;25.07;;;1.80;99.90;;;;;;6243732;23;20401;-78
2021/11/29 05:37:28;;;;;;;27.13;24.43;;;1.80;99.90;;;;;;6243346;22;20523;-78
2021/11/29 05:39:55;;;;;;;27.57;24.73;;;1.90;99.90;;;;;;6246036;23;20410;-78
2021/11/29 05:42:22;;;;;;;29.47;26.50;;;1.90;99.90;;;;;;6242295;22;20470;-77
2021/11/29 05:44:50;;;;;;;28.70;25.03;;;1.90;99.90;;;;;;6241333;23;21100;-77
2021/11/29 05:47:17;;;;;;;28.60;25.63;;;1.90;99.90;;;;;;6240549;23;20419;-78
2021/11/29 05:49:45;;;;;;;28.03;25.33;;;1.90;99.90;;;;;;6243234;23;20385;-78
2021/11/29 05:52:12;;;;;;;28.83;25.97;;;1.90;99.90;;;;;;6221370;23;20472;-77
2021/11/29 05:54:39;;;;;;;28.00;25.17;;;2.00;99.90;;;;;;6246007;23;20401;-77
2021/11/29 05:57:06;;;;;;;28.07;25.23;;;2.00;99.90;;;;;;6244891;23;20457;-78
2021/11/29 05:59:33;;;;;;;27.33;24.57;;;2.00;99.90;;;;;;6244948;23;20424;-77
2021/11/29 06:02:01;;;;;;;28.70;26.00;;;2.00;99.90;;;;;;6217960;22;20865;-78
2021/11/29 06:04:28;;;;;;;27.13;24.57;;;2.00;99.90;;;;;;6244942;23;20396;-78
2021/11/29 06:06:55;;;;;;;26.47;24.07;;;2.00;99.90;;;;;;6244327;23;20475;-78
2021/11/29 06:09:21;;;;;;;27.53;24.80;;;1.90;99.90;;;;;;6246610;23;20412;-78
2021/11/29 06:11:48;;;;;;;26.17;23.67;;;1.90;99.90;;;;;;6247263;22;20421;-77
2021/11/29 06:14:15;;;;;;;26.77;24.23;;;1.90;99.90;;;;;;6246453;23;20736;-77
2021/11/29 06:16:42;;;;;;;27.80;25.00;;;1.90;99.90;;;;;;6244705;23;20389;-78
2021/11/29 06:19:10;;;;;;;26.23;23.67;;;1.90;99.90;;;;;;6245118;23;20439;-78
2021/11/29 06:21:37;;;;;;;26.40;23.73;;;1.90;99.90;;;;;;6243982;23;20427;-78
2021/11/29 06:24:04;;;;;;;25.67;23.17;;;1.90;99.90;;;;;;6243037;23;20424;-78
2021/11/29 06:26:31;;;;;;;26.13;23.63;;;1.90;99.90;;;;;;6242929;22;20428;-78
2021/11/29 06:28:58;;;;;;;27.93;24.70;;;1.90;99.90;;;;;;6244477;23;20438;-78
2021/11/29 06:31:25;;;;;;;25.00;22.77;;;1.90;99.90;;;;;;6244735;23;20394;-77
2021/11/29 06:33:51;;;;;;;25.83;23.43;;;2.00;99.90;;;;;;6245248;22;20466;-77
2021/11/29 06:36:19;;;;;;;26.57;24.07;;;2.00;99.90;;;;;;6244315;22;20415;-78
2021/11/29 06:38:48;;;;;;;25.60;23.30;;;2.00;99.90;;;;;;6248396;23;20397;-78
2021/11/29 06:41:15;;;;;;;25.43;23.10;;;1.90;99.90;;;;;;6245831;23;20899;-78
2021/11/29 06:43:42;;;;;;;25.73;23.33;;;1.90;99.90;;;;;;6242154;22;20481;-79
2021/11/29 06:46:09;;;;;;;26.63;23.90;;;1.90;99.90;;;;;;6245641;23;20441;-78
2021/11/29 06:48:36;;;;;;;26.13;23.70;;;1.90;99.90;;;;;;6241659;22;20426;-77
2021/11/29 06:51:03;;;;;;;27.23;24.63;;;1.90;99.90;;;;;;6248093;23;20445;-77
2021/11/29 06:53:32;;;;;;;27.70;24.97;;;1.90;99.90;;;;;;6245357;22;20730;-79
2021/11/29 06:55:59;;;;;;;26.60;24.00;;;1.90;99.90;;;;;;6247111;23;20400;-77
2021/11/29 06:58:26;;;;;;;24.90;22.60;;;1.80;99.90;;;;;;6248071;23;20388;-77
2021/11/29 07:00:53;;;;;;;25.73;23.43;;;1.90;99.90;;;;;;6247283;23;20465;-77
2021/11/29 07:03:20;;;;;;;25.33;22.77;;;1.90;99.90;;;;;;6246097;22;20410;-77
2021/11/29 07:05:49;;;;;;;24.97;22.53;;;1.90;99.90;;;;;;6247322;23;20399;-77
2021/11/29 07:08:16;;;;;;;25.30;22.53;;;2.00;99.90;;;;;;6219898;23;20411;-77
2021/11/29 07:10:44;;;;;;;23.77;21.57;;;2.00;99.90;;;;;;6248121;23;20388;-77
2021/11/29 07:13:12;;;;;;;25.47;22.90;;;2.00;99.90;;;;;;6246040;23;20445;-79
2021/11/29 07:15:41;;;;;;;24.57;22.20;;;2.00;99.90;;;;;;6220645;23;20417;-78
2021/11/29 07:18:08;;;;;;;24.10;21.87;;;1.90;99.90;;;;;;6246056;23;20390;-78
2021/11/29 07:20:35;;;;;;;23.97;21.57;;;1.90;99.90;;;;;;6248295;23;20387;-77
2021/11/29 07:23:04;;;;;;;23.17;21.17;;;1.90;99.90;;;;;;6242780;22;20410;-78
2021/11/29 07:25:31;;;;;;;24.73;22.43;;;1.90;99.90;;;;;;6218292;23;20417;-77
2021/11/29 07:27:59;;;;;;;23.70;21.30;;;1.90;99.90;;;;;;6248641;23;20386;-77
2021/11/29 07:30:29;;;;;;;24.83;22.63;;;1.90;99.90;;;;;;6246475;23;20467;-77
2021/11/29 07:32:56;;;;;;;23.23;21.10;;;2.00;99.90;;;;;;6223119;23;20502;-78
2021/11/29 07:35:24;;;;;;;23.03;21.13;;;2.00;99.90;;;;;;6250268;23;20388;-78
2021/11/29 07:37:51;;;;;;;23.47;21.37;;;2.10;99.90;;;;;;6249146;23;20872;-78
2021/11/29 07:40:19;;;;;;;23.20;21.03;;;2.00;99.90;;;;;;6249007;23;20449;-78
2021/11/29 07:42:46;;;;;;;22.57;20.47;;;2.00;99.90;;;;;;6249112;22;20401;-78
2021/11/29 07:45:14;;;;;;;23.80;21.53;;;2.00;99.90;;;;;;6246962;23;20497;-78
2021/11/29 07:47:43;;;;;;;24.37;21.97;;;2.00;99.90;;;;;;6249059;23;20387;-77
2021/11/29 07:50:13;;;;;;;23.20;21.00;;;2.00;99.90;;;;;;6220038;23;20405;-80
2021/11/29 07:52:40;;;;;;;22.60;20.50;;;2.10;99.90;;;;;;6245925;22;20518;-79
2021/11/29 07:55:10;;;;;;;22.27;20.27;;;2.10;99.90;;;;;;6245537;22;20440;-82
2021/11/29 07:57:38;;;;;;;21.20;19.40;;;2.20;99.90;;;;;;6222078;23;20411;-80
2021/11/29 08:00:06;;;;;;;21.50;19.60;;;2.20;99.90;;;;;;6249025;23;20393;-78
2021/11/29 08:02:34;;;;;;;22.00;20.10;;;2.20;99.90;;;;;;6220213;23;20820;-78
2021/11/29 08:05:01;;;;;;;22.87;20.63;;;2.30;99.90;;;;;;6246078;23;20777;-78
2021/11/29 08:07:28;;;;;;;22.77;20.67;;;2.40;99.90;;;;;;6222079;23;20481;-78
2021/11/29 08:09:55;;;;;;;21.43;19.77;;;2.40;99.90;;;;;;6249638;23;20381;-78
2021/11/29 08:12:21;;;;;;;20.40;18.77;;;2.40;99.90;;;;;;6252641;22;20804;-79
2021/11/29 08:14:48;;;;;;;20.60;18.80;;;2.40;99.90;;;;;;6249648;23;20420;-77
2021/11/29 08:17:15;;;;;;;20.30;18.60;;;2.40;99.90;;;;;;6247098;23;20724;-77
2021/11/29 08:19:43;;;;;;;21.10;19.30;;;2.40;99.90;;;;;;6247534;23;20393;-78
2021/11/29 08:22:10;;;;;;;21.37;19.47;;;2.40;99.90;;;;;;6246707;23;20429;-77
2021/11/29 08:24:37;;;;;;;21.23;19.40;;;2.40;99.90;;;;;;6246534;23;20414;-78
2021/11/29 08:27:04;;;;;;;20.83;19.13;;;2.40;99.90;;;;;;6247761;23;20390;-77
2021/11/29 08:29:31;;;;;;;20.30;18.40;;;2.40;99.90;;;;;;6248048;23;20388;-79
2021/11/29 08:31:58;;;;;;;19.20;17.60;;;2.40;99.90;;;;;;6221653;22;20423;-78
2021/11/29 08:34:26;;;;;;;21.00;19.00;;;2.40;99.90;;;;;;6222449;23;21005;-78
2021/11/29 08:36:54;;;;;;;19.83;17.90;;;2.30;99.90;;;;;;6247919;23;20389;-78
2021/11/29 08:39:21;;;;;;;19.13;17.73;;;2.30;99.90;;;;;;6247325;23;20492;-79
2021/11/29 08:41:48;;;;;;;19.03;17.53;;;2.30;99.90;;;;;;6248530;22;20887;-79
2021/11/29 08:44:14;;;;;;;18.57;17.13;;;2.40;99.90;;;;;;6246917;22;20406;-79
2021/11/29 08:46:48;;;;;;;18.57;17.03;;;2.40;99.90;;;;;;6247655;23;20410;-78
2021/11/29 08:49:15;;;;;;;19.33;17.73;;;2.40;99.90;;;;;;6247990;23;20217;-79
2021/11/29 08:51:42;;;;;;;19.70;18.00;;;2.40;99.90;;;;;;6222336;23;20755;-79
2021/11/29 08:54:12;;;;;;;18.93;17.53;;;2.50;99.90;;;;;;6247511;22;20433;-78
2021/11/29 08:56:39;;;;;;;20.10;18.30;;;2.60;99.90;;;;;;6248509;23;20378;-79
2021/11/29 08:59:06;;;;;;;19.90;18.30;;;2.60;99.90;;;;;;6249089;23;20557;-78
2021/11/29 09:01:34;;;;;;;18.97;17.47;;;2.70;99.90;;;;;;6248072;23;20221;-81
2021/11/29 09:04:01;;;;;;;18.33;16.93;;;2.70;99.90;;;;;;6246659;22;20241;-78
2021/11/29 09:06:28;;;;;;;18.40;16.90;;;2.70;99.90;;;;;;6246683;23;20432;-78
2021/11/29 09:08:55;;;;;;;18.87;17.37;;;2.70;99.90;;;;;;6246237;23;20170;-79
2021/11/29 09:11:23;;;;;;;17.87;16.53;;;2.70;99.90;;;;;;6248829;23;20546;-77
2021/11/29 09:13:50;;;;;;;18.73;17.20;;;2.70;99.90;;;;;;6247624;22;20432;-78
2021/11/29 09:16:17;;;;;;;18.53;17.23;;;2.60;99.90;;;;;;6247290;23;20552;-78
2021/11/29 09:18:46;;;;;;;19.10;17.47;;;2.70;99.90;;;;;;6248015;23;20385;-77
2021/11/29 09:21:17;;;;;;;19.77;18.17;;;2.70;99.90;;;;;;6246875;23;20439;-79
2021/11/29 09:23:45;;;;;;;19.30;17.70;;;2.70;99.90;;;;;;6221054;23;20436;-78
2021/11/29 09:26:13;;;;;;;20.60;18.73;;;2.70;99.90;;;;;;6248633;23;20798;-78
2021/11/29 09:28:42;;;;;;;19.53;17.93;;;2.80;99.90;;;;;;6249183;23;20726;-78
2021/11/29 09:31:09;;;;;;;20.47;18.53;;;2.80;99.90;;;;;;6249181;23;20747;-78
2021/11/29 09:33:37;;;;;;;19.17;17.70;;;2.70;99.90;;;;;;6221252;23;20712;-81
2021/11/29 09:36:04;;;;;;;20.57;18.87;;;2.60;99.90;;;;;;6218695;23;20467;-78
2021/11/29 09:38:34;;;;;;;20.53;18.70;;;2.60;99.90;;;;;;6241927;22;20421;-78
2021/11/29 09:41:05;;;;;;;20.37;18.43;;;2.50;99.90;;;;;;6242757;23;20545;-78
2021/11/29 09:43:32;;;;;;;21.20;19.27;;;2.50;99.90;;;;;;6245735;22;20409;-80
2021/11/29 09:46:00;;;;;;;21.53;19.73;;;2.50;99.90;;;;;;6216511;23;20987;-80
2021/11/29 09:48:27;;;;;;;20.70;18.97;;;2.50;99.90;;;;;;6245005;23;20397;-79
2021/11/29 09:50:56;;;;;;;20.80;19.00;;;2.50;99.90;;;;;;6245739;23;20435;-79
2021/11/29 09:53:25;;;;;;;19.70;17.87;;;2.60;99.90;;;;;;6241877;23;20199;-81
2021/11/29 09:55:52;;;;;;;19.93;18.13;;;2.60;99.90;;;;;;6216891;23;20610;-80
2021/11/29 09:58:19;;;;;;;19.93;18.33;;;2.60;99.90;;;;;;6242666;23;20443;-80
2021/11/29 10:00:48;;;;;;;20.30;18.33;;;2.70;99.90;;;;;;6216828;23;20413;-80
2021/11/29 10:03:17;;;;;;;19.57;17.87;;;2.70;99.90;;;;;;6216388;23;20240;-81
2021/11/29 10:05:45;;;;;;;19.03;17.57;;;2.70;99.90;;;;;;6216409;23;20512;-81
2021/11/29 10:08:19;;;;;;;21.00;19.10;;;2.80;99.90;;;;;;6216460;23;20413;-79
2021/11/29 10:10:47;;;;;;;19.83;18.13;;;2.90;99.90;;;;;;6243575;23;20396;-79
2021/11/29 10:13:14;;;;;;;19.47;17.77;;;2.90;99.90;;;;;;6242648;22;20730;-79
2021/11/29 10:15:42;;;;;;;18.67;17.23;;;3.00;99.90;;;;;;6213191;23;20616;-80
2021/11/29 10:18:12;;;;;;;18.70;17.10;;;3.10;99.90;;;;;;6240711;23;20492;-79
2021/11/29 10:20:54;;;;;;;18.17;16.63;;;3.20;99.90;;;;;;6244694;23;20677;-79
2021/11/29 10:23:26;;;;;;;16.73;15.33;;;3.40;99.90;;;;;;6245125;22;20567;-78
2021/11/29 10:25:54;;;;;;;17.57;15.93;;;3.50;99.90;;;;;;6219669;23;20413;-80
2021/11/29 10:28:23;;;;;;;16.00;14.80;;;3.60;99.90;;;;;;6223116;23;20417;-79
2021/11/29 10:31:08;;;;;;;15.77;14.67;;;3.80;99.90;;;;;;6224526;23;20175;-78
2021/11/29 10:33:48;;;;;;;16.00;14.63;;;3.90;99.90;;;;;;6249353;22;20560;-78
2021/11/29 10:36:17;;;;;;;15.80;14.40;;;4.00;99.90;;;;;;6223519;23;20228;-78
2021/11/29 10:38:49;;;;;;;14.67;13.43;;;4.00;99.90;;;;;;6222605;23;20511;-79
2021/11/29 10:41:20;;;;;;;15.13;13.93;;;3.90;99.90;;;;;;6222422;23;20504;-78
2021/11/29 10:43:47;;;;;;;15.17;13.87;;;3.80;99.90;;;;;;6251645;22;20236;-78
2021/11/29 10:46:18;;;;;;;15.10;14.00;;;3.80;99.90;;;;;;6250250;23;20505;-79
2021/11/29 10:48:45;;;;;;;14.50;13.30;;;3.70;99.90;;;;;;6221540;23;20175;-78
2021/11/29 10:51:14;;;;;;;14.93;13.73;;;3.70;99.90;;;;;;6248050;23;20185;-78
2021/11/29 10:53:52;;;;;;;15.03;13.77;;;3.70;99.90;;;;;;6247753;22;20237;-77
2021/11/29 10:56:19;;;;;;;14.60;13.47;;;3.60;99.90;;;;;;6220571;23;20220;-77
2021/11/29 10:58:48;;;;;;;14.13;13.03;;;3.60;99.90;;;;;;6247201;23;20197;-79
2021/11/29 11:01:16;;;;;;;15.63;14.53;;;3.60;99.90;;;;;;6222127;23;20178;-78
2021/11/29 11:03:52;;;;;;;14.70;13.40;;;3.70;99.90;;;;;;6250543;22;20513;-78
2021/11/29 11:06:27;;;;;;;14.30;13.10;;;3.80;99.90;;;;;;6250072;23;20166;-78
2021/11/29 11:08:55;;;;;;;14.47;13.37;;;4.10;99.90;;;;;;6223543;23;20597;-79
2021/11/29 11:11:35;;;;;;;15.70;14.30;;;4.20;99.90;;;;;;6221585;23;20426;-77
2021/11/29 11:14:07;;;;;;;14.70;13.70;;;4.30;99.90;;;;;;6249410;22;20183;-77
2021/11/29 11:16:40;;;;;;;15.10;13.80;;;4.40;99.90;;;;;;6223079;23;20217;-78
2021/11/29 11:19:10;;;;;;;15.10;14.00;;;4.50;99.90;;;;;;6252523;23;20167;-79
2021/11/29 11:21:37;;;;;;;14.60;13.50;;;4.50;99.90;;;;;;6251717;23;20234;-79
2021/11/29 11:24:22;;;;;;;14.80;13.70;;;4.40;99.90;;;;;;6222221;23;20577;-78
2021/11/29 11:26:50;;;;;;;14.57;13.47;;;4.50;99.90;;;;;;6222282;23;20174;-79
2021/11/29 11:29:36;;;;;;;14.50;13.43;;;4.50;99.90;;;;;;6222946;23;20170;-79
2021/11/29 11:32:21;;;;;;;13.60;12.67;;;4.50;99.90;;;;;;6218929;23;20155;-79
2021/11/29 11:34:50;;;;;;;13.80;12.80;;;4.50;99.90;;;;;;6192360;23;20191;-79
2021/11/29 11:37:21;;;;;;;13.23;12.33;;;4.50;99.90;;;;;;6192704;23;20179;-79
2021/11/29 11:39:50;;;;;;;13.47;12.40;;;4.40;99.90;;;;;;6218505;23;20190;-78
2021/11/29 11:42:18;;;;;;;13.77;12.70;;;4.30;99.90;;;;;;6191788;23;20191;-79
2021/11/29 11:44:45;;;;;;;13.83;12.83;;;4.20;99.90;;;;;;6194926;23;20233;-79
2021/11/29 11:47:13;;;;;;;13.53;12.50;;;4.20;99.90;;;;;;6193206;23;20555;-78
2021/11/29 11:49:43;;;;;;;13.80;12.60;;;4.20;99.90;;;;;;6192995;23;20175;-79
2021/11/29 11:52:13;;;;;;;13.23;12.23;;;4.20;99.90;;;;;;6219910;23;20210;-79
2021/11/29 11:54:42;;;;;;;13.33;12.43;;;4.20;99.90;;;;;;6191590;23;20737;-78
2021/11/29 11:57:12;;;;;;;12.77;12.03;;;4.10;99.90;;;;;;6187279;23;20255;-78
2021/11/29 11:59:55;;;;;;;12.87;12.00;;;4.10;99.90;;;;;;6188914;23;20157;-77
2021/11/29 12:02:33;;;;;;;13.33;12.33;;;4.10;99.90;;;;;;6188932;23;20188;-78
2021/11/29 12:05:14;;;;;;;13.57;12.67;;;4.10;99.90;;;;;;6189538;23;20171;-79
2021/11/29 12:07:41;;;;;;;13.53;12.63;;;4.00;99.90;;;;;;6188448;23;20186;-78
2021/11/29 12:10:37;;;;;;;14.03;12.93;;;4.00;99.90;;;;;;6189762;23;20222;-78
2021/11/29 12:13:07;;;;;;;13.57;12.60;;;3.90;99.90;;;;;;6186728;23;20200;-78
2021/11/29 12:15:42;;;;;;;13.67;12.63;;;3.80;99.90;;;;;;6186849;23;20176;-80
2021/11/29 12:18:11;;;;;;;13.63;12.50;;;3.90;99.90;;;;;;6186767;23;20171;-79
2021/11/29 12:20:38;;;;;;;14.00;13.07;;;3.80;99.90;;;;;;6187485;23;20600;-78
2021/11/29 12:23:05;;;;;;;13.53;12.73;;;3.70;99.90;;;;;;6185545;23;20196;-78
2021/11/29 12:25:46;;;;;;;13.60;12.63;;;3.80;99.90;;;;;;6185586;23;20510;-78
2021/11/29 12:28:35;;;;;;;13.73;12.73;;;3.70;99.90;;;;;;6185243;23;20222;-78
2021/11/29 12:31:02;;;;;;;12.87;12.10;;;3.70;99.90;;;;;;6184946;23;20561;-80
2021/11/29 12:33:44;;;;;;;13.10;12.10;;;3.70;99.90;;;;;;6185433;23;20184;-79
2021/11/29 12:36:12;;;;;;;13.77;12.77;;;3.70;99.90;;;;;;6184100;23;20156;-79
2021/11/29 12:38:48;;;;;;;13.10;12.30;;;3.70;99.90;;;;;;6185217;23;20192;-79
2021/11/29 12:41:36;;;;;;;14.07;12.80;;;3.80;99.90;;;;;;6184189;23;20271;-80